Terminal Aerodrome Forecast
Issued by NWS Greer, SC

Home | Current Version | Previous Version | Text Only | Print | Product List | Glossary On
Versions: 1 2 3 4 5 6 7 8 9 10 11 12 13 14 15 16 17 18 19 20 21 22 23 24 25 26 27 28 29 30 31 32 33 34 35 36 37 38 39 40 41
000
FTUS42 KGSP 281120
TAFAVL
TAF
KAVL 281120Z 2812/0112 16004KT P6SM OVC035
     FM281700 13005KT P6SM SCT035 BKN060
     FM010000 13006KT P6SM BKN020
     FM010300 13004KT P6SM BKN010
     FM010800 13003KT P6SM -FZRA OVC013=

USA.gov is the U.S. government's official web portal to all federal, state and local government web resources and services.